createdAt,value
2022-12-29T00:01:34.347Z,0.63
2022-12-29T00:04:04.441Z,0.50
2022-12-29T00:06:33.129Z,0.45
2022-12-29T00:09:01.597Z,0.70
2022-12-29T00:11:30.236Z,0.60
2022-12-29T00:14:19.220Z,0.63
2022-12-29T00:16:50.010Z,0.50
2022-12-29T00:19:37.348Z,0.60
2022-12-29T00:22:23.797Z,0.57
2022-12-29T00:25:10.410Z,0.60
2022-12-29T00:27:58.290Z,0.73
2022-12-29T00:30:47.410Z,0.80
2022-12-29T00:33:34.960Z,0.75
2022-12-29T00:36:07.670Z,0.50
2022-12-29T00:38:58.340Z,0.50
2022-12-29T00:41:44.923Z,0.60
2022-12-29T00:44:15.551Z,0.70
2022-12-29T00:46:47.380Z,0.60
2022-12-29T00:49:33.544Z,0.50
2022-12-29T00:52:07.252Z,0.50
2022-12-29T00:54:37.387Z,0.50
2022-12-29T00:57:07.358Z,0.70
2022-12-29T00:59:37.972Z,0.95
2022-12-29T01:02:06.965Z,0.60
2022-12-29T01:04:36.353Z,0.50
2022-12-29T01:07:06.233Z,0.52
2022-12-29T01:09:52.649Z,0.57
2022-12-29T01:12:41.514Z,0.60
2022-12-29T01:15:14.843Z,0.40
2022-12-29T01:17:44.233Z,0.40
2022-12-29T01:20:13.671Z,0.50
2022-12-29T01:22:44.804Z,0.40
2022-12-29T01:25:13.643Z,0.50
2022-12-29T01:27:42.728Z,0.45
2022-12-29T01:30:11.965Z,0.80
2022-12-29T01:32:40.471Z,0.47
2022-12-29T01:35:09.522Z,0.50
2022-12-29T01:37:38.057Z,0.50
2022-12-29T01:40:09.110Z,0.60
2022-12-29T01:42:37.598Z,0.40
2022-12-29T01:45:11.894Z,0.50
2022-12-29T01:47:46.534Z,0.50
2022-12-29T01:50:19.848Z,0.57
2022-12-29T01:52:57.043Z,0.60
2022-12-29T01:55:28.367Z,0.60
2022-12-29T01:58:01.865Z,0.70
2022-12-29T02:00:32.857Z,0.43
2022-12-29T02:03:01.839Z,0.60
2022-12-29T02:05:36.106Z,0.60
2022-12-29T02:08:04.736Z,0.40
2022-12-29T02:10:39.644Z,0.50
2022-12-29T02:13:08.139Z,0.50
2022-12-29T02:15:48.321Z,0.55
2022-12-29T02:18:39.197Z,0.50
2022-12-29T02:21:41.753Z,0.80
2022-12-29T02:24:49.700Z,0.70
2022-12-29T02:27:38.902Z,0.50
2022-12-29T02:30:16.059Z,0.60
2022-12-29T02:32:54.261Z,0.40
2022-12-29T02:35:33.111Z,0.60
2022-12-29T02:38:13.034Z,0.50
2022-12-29T02:40:46.128Z,0.60
2022-12-29T02:43:24.513Z,0.60
2022-12-29T02:45:59.275Z,0.60
2022-12-29T02:48:33.468Z,0.60
2022-12-29T02:51:04.760Z,0.65
2022-12-29T02:53:54.005Z,0.47
2022-12-29T02:56:23.035Z,0.50
2022-12-29T02:58:51.773Z,0.50
2022-12-29T03:01:31.829Z,0.38
2022-12-29T03:04:18.936Z,0.35
2022-12-29T03:06:57.811Z,0.43
2022-12-29T03:09:37.464Z,0.40
2022-12-29T03:12:17.145Z,0.50
2022-12-29T03:15:16.261Z,0.40
2022-12-29T03:17:53.864Z,0.60
2022-12-29T03:20:28.960Z,0.45
2022-12-29T03:23:03.564Z,0.50
2022-12-29T03:25:40.450Z,0.40
2022-12-29T03:28:16.086Z,0.50
2022-12-29T03:30:48.775Z,0.40
2022-12-29T03:33:23.794Z,0.57
2022-12-29T03:35:58.730Z,0.50
2022-12-29T03:38:36.005Z,0.60
2022-12-29T03:41:09.838Z,0.50
2022-12-29T03:43:40.077Z,0.57
2022-12-29T03:46:09.015Z,0.40
2022-12-29T03:48:38.424Z,0.50
2022-12-29T03:51:08.869Z,0.40
2022-12-29T03:53:37.886Z,0.45
2022-12-29T03:56:06.665Z,0.50
2022-12-29T03:58:35.738Z,0.40
2022-12-29T04:01:10.510Z,0.40
2022-12-29T04:03:41.386Z,0.50
2022-12-29T04:06:11.340Z,0.70
2022-12-29T04:08:49.808Z,0.60
2022-12-29T04:11:18.598Z,0.40
2022-12-29T04:13:47.722Z,0.40
2022-12-29T04:16:22.749Z,0.40
2022-12-29T04:18:51.259Z,0.50
2022-12-29T04:21:21.130Z,0.65
2022-12-29T04:23:50.624Z,0.50
2022-12-29T04:26:19.432Z,0.40
2022-12-29T04:28:57.699Z,0.50
2022-12-29T04:32:01.539Z,0.60
2022-12-29T04:34:32.004Z,0.40
2022-12-29T04:37:02.145Z,0.32
2022-12-29T04:39:31.027Z,0.50
2022-12-29T04:41:59.636Z,0.60
2022-12-29T04:44:28.116Z,0.40
2022-12-29T04:47:19.487Z,0.50
2022-12-29T04:49:56.437Z,0.40
2022-12-29T04:52:47.475Z,0.50
2022-12-29T04:55:16.573Z,0.50
2022-12-29T04:57:47.470Z,0.60
2022-12-29T05:00:20.886Z,0.40
2022-12-29T05:02:51.230Z,0.40
2022-12-29T05:05:20.836Z,0.40
2022-12-29T05:07:53.570Z,0.52
2022-12-29T05:10:22.095Z,0.47
2022-12-29T05:12:54.235Z,0.40
2022-12-29T05:15:23.434Z,0.60
2022-12-29T05:17:53.740Z,0.45
2022-12-29T05:20:22.515Z,0.68
2022-12-29T05:22:51.108Z,0.40
2022-12-29T05:25:21.074Z,0.60
2022-12-29T05:28:03.075Z,0.50
2022-12-29T05:30:42.986Z,0.43
2022-12-29T05:33:12.714Z,0.60
2022-12-29T05:35:42.418Z,0.43
2022-12-29T05:38:11.592Z,0.40
2022-12-29T05:40:43.035Z,0.60
2022-12-29T05:43:46.876Z,0.52
2022-12-29T05:46:34.005Z,0.40
2022-12-29T05:49:17.754Z,0.70
2022-12-29T05:52:25.390Z,0.50
2022-12-29T05:54:54.786Z,0.70
2022-12-29T05:57:27.061Z,0.52
2022-12-29T06:00:13.991Z,0.32
2022-12-29T06:02:47.081Z,0.55
2022-12-29T06:05:18.750Z,0.50
2022-12-29T06:07:47.541Z,0.40
2022-12-29T06:10:18.818Z,0.45
2022-12-29T06:12:54.344Z,0.50
2022-12-29T06:15:23.083Z,0.67
2022-12-29T06:17:52.698Z,0.50
2022-12-29T06:20:21.139Z,0.43
2022-12-29T06:22:50.362Z,0.43
2022-12-29T06:25:19.806Z,0.40
2022-12-29T06:27:49.345Z,0.32
2022-12-29T06:30:19.348Z,0.52
2022-12-29T06:32:47.927Z,0.33
2022-12-29T06:35:16.788Z,0.40
2022-12-29T06:37:51.909Z,0.40
2022-12-29T06:40:22.719Z,0.50
2022-12-29T06:43:12.702Z,0.38
2022-12-29T06:45:48.356Z,0.40
2022-12-29T06:48:16.871Z,0.40
2022-12-29T06:50:46.138Z,0.50
2022-12-29T06:53:15.027Z,0.60
2022-12-29T06:55:44.725Z,0.60
2022-12-29T06:58:13.344Z,0.55
2022-12-29T07:00:43.198Z,0.40
2022-12-29T07:03:13.172Z,0.40
2022-12-29T07:05:43.062Z,0.55
2022-12-29T07:08:11.561Z,0.40
2022-12-29T07:10:40.219Z,0.50
2022-12-29T07:13:09.327Z,0.50
2022-12-29T07:15:39.037Z,0.50
2022-12-29T07:18:07.830Z,0.50
2022-12-29T07:20:37.777Z,0.40
2022-12-29T07:23:06.697Z,0.50
2022-12-29T07:25:36.066Z,0.60
2022-12-29T07:28:04.991Z,0.50
2022-12-29T07:30:33.463Z,0.40
2022-12-29T07:33:02.307Z,0.60
2022-12-29T07:35:30.663Z,0.60
2022-12-29T07:38:00.404Z,0.40
2022-12-29T07:40:28.939Z,0.70
2022-12-29T07:42:58.512Z,0.40
2022-12-29T07:45:42.516Z,0.40
2022-12-29T07:48:10.912Z,0.47
2022-12-29T07:50:39.350Z,0.55
2022-12-29T07:53:09.311Z,0.50
2022-12-29T07:55:37.679Z,0.50
2022-12-29T07:58:06.188Z,0.50
2022-12-29T08:00:34.903Z,0.50
2022-12-29T08:03:03.377Z,0.50
2022-12-29T08:05:32.712Z,0.40
2022-12-29T08:08:01.036Z,0.60
2022-12-29T08:10:30.906Z,0.55
2022-12-29T08:13:00.250Z,0.50
2022-12-29T08:15:32.391Z,0.40
2022-12-29T08:18:01.514Z,0.50
2022-12-29T08:20:29.998Z,0.70
2022-12-29T08:22:58.693Z,0.50
2022-12-29T08:25:31.727Z,0.43
2022-12-29T08:28:00.055Z,0.50
2022-12-29T08:30:28.571Z,0.50
2022-12-29T08:32:56.968Z,0.60
2022-12-29T08:35:25.309Z,0.60
2022-12-29T08:37:54.183Z,0.43
2022-12-29T08:40:22.582Z,0.60
2022-12-29T08:42:53.435Z,1.02
2022-12-29T08:45:21.800Z,0.50
2022-12-29T08:47:50.116Z,0.43
2022-12-29T08:50:18.596Z,0.77
2022-12-29T08:52:47.139Z,0.63
2022-12-29T08:55:15.580Z,0.53
2022-12-29T08:57:44.125Z,1.10
2022-12-29T09:00:19.666Z,0.60
2022-12-29T09:02:48.154Z,0.67
2022-12-29T09:05:16.847Z,0.55
2022-12-29T09:07:45.358Z,0.50
2022-12-29T09:10:19.138Z,0.65
2022-12-29T09:12:47.574Z,0.50
2022-12-29T09:15:16.578Z,0.50
2022-12-29T09:17:46.560Z,1.10
2022-12-29T09:20:17.570Z,0.60
2022-12-29T09:22:47.234Z,0.60
2022-12-29T09:25:16.112Z,0.60
2022-12-29T09:27:47.017Z,0.70
2022-12-29T09:30:18.589Z,0.50
2022-12-29T09:32:53.409Z,0.90
2022-12-29T09:35:23.440Z,0.80
2022-12-29T09:37:52.464Z,0.55
2022-12-29T09:40:30.963Z,0.70
2022-12-29T09:43:26.551Z,0.47
2022-12-29T09:46:00.352Z,0.70
2022-12-29T09:48:33.694Z,0.50
2022-12-29T09:51:05.301Z,0.70
2022-12-29T09:53:40.403Z,0.50
2022-12-29T09:56:15.598Z,0.60
2022-12-29T09:58:49.637Z,0.50
2022-12-29T10:01:28.927Z,0.85
2022-12-29T10:04:00.692Z,1.10
2022-12-29T10:06:41.347Z,0.50
2022-12-29T10:09:32.796Z,0.60
2022-12-29T10:12:15.776Z,0.55
2022-12-29T10:14:59.283Z,0.65
2022-12-29T10:17:38.550Z,0.63
2022-12-29T10:20:29.646Z,0.80
2022-12-29T10:23:16.502Z,0.50
2022-12-29T10:25:46.160Z,0.60
2022-12-29T10:28:24.258Z,0.50
2022-12-29T10:30:56.288Z,0.80
2022-12-29T10:33:32.156Z,0.60
2022-12-29T10:36:04.966Z,0.85
2022-12-29T10:38:40.960Z,0.60
2022-12-29T10:41:17.427Z,0.45
2022-12-29T10:43:49.054Z,0.40
2022-12-29T10:46:22.288Z,0.87
2022-12-29T10:48:50.822Z,0.80
2022-12-29T10:51:24.372Z,0.65
2022-12-29T10:53:57.589Z,0.63
2022-12-29T10:56:34.811Z,0.50
2022-12-29T10:59:09.410Z,0.60
2022-12-29T11:01:43.291Z,1.65
2022-12-29T11:04:35.817Z,0.70
2022-12-29T11:07:10.607Z,0.77
2022-12-29T11:09:45.288Z,0.50
2022-12-29T11:12:23.178Z,0.87
2022-12-29T11:15:09.680Z,0.70
2022-12-29T11:17:46.413Z,0.75
2022-12-29T11:20:34.157Z,0.60
2022-12-29T11:23:05.718Z,1.00
2022-12-29T11:25:34.461Z,0.60
2022-12-29T11:28:05.323Z,0.67
2022-12-29T11:30:36.374Z,0.60
2022-12-29T11:33:07.173Z,0.60
2022-12-29T11:35:40.639Z,0.60
2022-12-29T11:38:21.872Z,0.90
2022-12-29T11:40:50.903Z,0.70
2022-12-29T11:43:28.524Z,0.93
2022-12-29T11:46:00.339Z,0.87
2022-12-29T11:48:33.918Z,1.60
2022-12-29T11:51:02.665Z,0.60
2022-12-29T11:53:40.933Z,0.80
2022-12-29T11:56:12.997Z,0.50
2022-12-29T11:58:41.394Z,0.80
2022-12-29T12:01:17.763Z,1.17
2022-12-29T12:03:50.417Z,1.10
2022-12-29T12:06:25.181Z,0.77
2022-12-29T12:08:57.864Z,0.80
2022-12-29T12:11:34.249Z,0.90
2022-12-29T12:14:05.347Z,0.53
2022-12-29T12:16:58.075Z,0.93
2022-12-29T12:19:35.713Z,0.90
2022-12-29T12:22:13.025Z,0.90
2022-12-29T12:24:49.717Z,0.70
2022-12-29T12:27:24.156Z,0.70
2022-12-29T12:29:58.928Z,1.80
2022-12-29T12:32:35.918Z,1.13
2022-12-29T12:35:04.500Z,0.70
2022-12-29T12:37:46.847Z,1.13
2022-12-29T12:40:35.827Z,0.70
2022-12-29T12:43:21.925Z,0.82
2022-12-29T12:45:57.987Z,0.90
2022-12-29T12:48:48.877Z,0.63
2022-12-29T12:51:26.341Z,0.90
2022-12-29T12:54:08.292Z,0.70
2022-12-29T12:57:06.451Z,0.98
2022-12-29T12:59:54.341Z,0.50
2022-12-29T13:02:33.429Z,1.33
2022-12-29T13:05:26.852Z,0.87
2022-12-29T13:08:21.304Z,1.40
2022-12-29T13:10:55.832Z,1.27
2022-12-29T13:13:49.589Z,1.40
2022-12-29T13:16:25.034Z,1.67
2022-12-29T13:19:00.624Z,1.40
2022-12-29T13:21:42.931Z,1.30
2022-12-29T13:24:23.082Z,0.97
2022-12-29T13:26:56.918Z,1.30
2022-12-29T13:29:36.383Z,1.20
2022-12-29T13:32:24.138Z,1.10
2022-12-29T13:35:03.960Z,0.90
2022-12-29T13:37:35.549Z,1.70
2022-12-29T13:40:12.180Z,1.40
2022-12-29T13:42:41.686Z,1.03
2022-12-29T13:45:16.944Z,1.13
2022-12-29T13:47:51.345Z,1.47
2022-12-29T13:50:23.038Z,1.80
2022-12-29T13:53:00.312Z,0.90
2022-12-29T13:55:34.497Z,1.30
2022-12-29T13:58:07.189Z,0.83
2022-12-29T14:00:46.242Z,1.10
2022-12-29T14:03:49.031Z,1.38
2022-12-29T14:06:25.017Z,1.17
2022-12-29T14:08:56.315Z,1.43
2022-12-29T14:11:30.618Z,1.20
2022-12-29T14:13:59.824Z,1.00
2022-12-29T14:16:32.906Z,1.00
2022-12-29T14:19:14.913Z,0.88
2022-12-29T14:21:51.741Z,1.00
2022-12-29T14:24:42.100Z,0.90
2022-12-29T14:27:47.950Z,1.27
2022-12-29T14:30:48.831Z,1.10
2022-12-29T14:33:19.105Z,0.80
2022-12-29T14:35:50.745Z,0.63
2022-12-29T14:38:22.167Z,1.10
2022-12-29T14:40:51.753Z,1.63
2022-12-29T14:43:28.086Z,1.10
2022-12-29T14:46:01.170Z,0.70
2022-12-29T14:48:38.473Z,1.27
2022-12-29T14:51:30.196Z,1.10
2022-12-29T14:53:58.567Z,1.03
2022-12-29T14:56:29.344Z,0.90
2022-12-29T14:59:01.124Z,0.57
2022-12-29T15:01:40.591Z,0.80
2022-12-29T15:04:20.021Z,1.07
2022-12-29T15:06:50.574Z,0.87
2022-12-29T15:09:28.619Z,1.13
2022-12-29T15:12:03.512Z,1.07
2022-12-29T15:14:38.492Z,0.90
2022-12-29T15:17:23.273Z,0.83
2022-12-29T15:19:53.030Z,1.00
2022-12-29T15:22:21.697Z,1.80
2022-12-29T15:24:53.007Z,1.03
2022-12-29T15:27:23.715Z,1.10
2022-12-29T15:29:59.985Z,1.07
2022-12-29T15:32:30.242Z,1.57
2022-12-29T15:35:02.377Z,0.77
2022-12-29T15:37:36.462Z,1.47
2022-12-29T15:40:06.377Z,0.87
2022-12-29T15:43:21.573Z,0.67
2022-12-29T15:45:51.901Z,0.80
2022-12-29T15:48:22.352Z,1.17
2022-12-29T15:50:53.716Z,0.80
2022-12-29T15:53:29.448Z,0.70
2022-12-29T15:56:03.564Z,1.60
2022-12-29T15:58:33.406Z,0.80
2022-12-29T16:01:03.636Z,1.13
2022-12-29T16:03:35.107Z,1.20
2022-12-29T16:06:13.306Z,0.87
2022-12-29T16:08:42.703Z,0.70
2022-12-29T16:11:26.156Z,1.23
2022-12-29T16:13:57.139Z,1.03
2022-12-29T16:16:32.118Z,0.80
2022-12-29T16:19:13.648Z,0.93
2022-12-29T16:21:44.324Z,0.90
2022-12-29T16:24:18.991Z,0.80
2022-12-29T16:26:53.053Z,1.00
2022-12-29T16:29:23.847Z,1.20
2022-12-29T16:32:01.393Z,0.80
2022-12-29T16:34:33.845Z,1.20
2022-12-29T16:37:05.274Z,0.87
2022-12-29T16:39:36.980Z,0.90
2022-12-29T16:42:37.045Z,1.97
2022-12-29T16:45:38.818Z,1.00
2022-12-29T16:48:20.499Z,1.07
2022-12-29T16:50:49.781Z,1.00
2022-12-29T16:53:26.731Z,0.83
2022-12-29T16:55:56.845Z,1.13
2022-12-29T16:58:30.268Z,1.20
2022-12-29T17:01:00.190Z,1.20
2022-12-29T17:03:35.237Z,1.00
2022-12-29T17:06:04.710Z,1.13
2022-12-29T17:08:43.005Z,0.80
2022-12-29T17:11:42.965Z,1.20
2022-12-29T17:14:22.551Z,0.97
2022-12-29T17:16:51.389Z,0.97
2022-12-29T17:19:23.352Z,0.80
2022-12-29T17:21:51.799Z,0.80
2022-12-29T17:24:22.346Z,1.17
2022-12-29T17:26:53.484Z,0.93
2022-12-29T17:29:35.012Z,1.17
2022-12-29T17:32:05.822Z,1.20
2022-12-29T17:34:34.733Z,1.30
2022-12-29T17:37:03.404Z,1.20
2022-12-29T17:39:33.342Z,1.23
2022-12-29T17:42:01.856Z,1.00
2022-12-29T17:44:30.593Z,0.93
2022-12-29T17:46:59.191Z,1.07
2022-12-29T17:49:29.457Z,1.03
2022-12-29T17:51:58.976Z,1.30
2022-12-29T17:54:28.320Z,1.20
2022-12-29T17:56:58.980Z,1.10
2022-12-29T17:59:27.511Z,1.40
2022-12-29T18:01:56.117Z,1.20
2022-12-29T18:04:24.799Z,0.97
2022-12-29T18:06:53.300Z,1.20
2022-12-29T18:09:22.784Z,1.00
2022-12-29T18:11:51.245Z,1.10
2022-12-29T18:14:21.222Z,1.10
2022-12-29T18:16:49.845Z,0.90
2022-12-29T18:19:18.298Z,1.10
2022-12-29T18:21:46.878Z,0.90
2022-12-29T18:24:16.208Z,1.10
2022-12-29T18:26:44.717Z,1.40
2022-12-29T18:29:13.275Z,1.13
2022-12-29T18:31:43.370Z,1.10
2022-12-29T18:34:16.033Z,1.00
2022-12-29T18:36:44.469Z,1.07
2022-12-29T18:39:13.496Z,1.00
2022-12-29T18:41:42.176Z,1.57
2022-12-29T18:44:13.857Z,1.23
2022-12-29T18:46:43.888Z,1.20
2022-12-29T18:49:14.581Z,1.13
2022-12-29T18:51:43.101Z,1.17
2022-12-29T18:54:25.288Z,1.00
2022-12-29T18:56:53.817Z,1.13
2022-12-29T18:59:22.564Z,1.10
2022-12-29T19:01:52.931Z,1.27
2022-12-29T19:04:22.416Z,0.97
2022-12-29T19:06:51.455Z,1.27
2022-12-29T19:09:21.040Z,1.10
2022-12-29T19:11:49.511Z,0.90
2022-12-29T19:14:18.662Z,0.90
2022-12-29T19:16:47.817Z,0.97
2022-12-29T19:19:18.725Z,1.10
2022-12-29T19:21:47.220Z,1.10
2022-12-29T19:24:15.703Z,1.00
2022-12-29T19:26:44.144Z,1.10
2022-12-29T19:29:16.178Z,1.23
2022-12-29T19:31:44.689Z,1.03
2022-12-29T19:34:16.003Z,1.47
2022-12-29T19:36:46.628Z,1.20
2022-12-29T19:39:15.231Z,1.10
2022-12-29T19:41:43.771Z,1.30
2022-12-29T19:44:12.212Z,1.10
2022-12-29T19:46:40.842Z,1.40
2022-12-29T19:49:09.351Z,0.80
2022-12-29T19:51:37.873Z,0.97
2022-12-29T19:54:07.886Z,0.70
2022-12-29T19:56:36.338Z,0.90
2022-12-29T19:59:04.921Z,1.00
2022-12-29T20:01:34.004Z,2.07
2022-12-29T20:04:04.030Z,0.80
2022-12-29T20:06:32.566Z,1.20
2022-12-29T20:09:03.262Z,1.10
2022-12-29T20:11:33.287Z,0.70
2022-12-29T20:14:01.785Z,1.10
2022-12-29T20:16:30.887Z,1.20
2022-12-29T20:18:59.435Z,1.00
2022-12-29T20:21:27.991Z,1.10
2022-12-29T20:23:56.843Z,1.30
2022-12-29T20:26:27.364Z,0.90
2022-12-29T20:28:57.893Z,1.10
2022-12-29T20:31:28.652Z,0.80
2022-12-29T20:33:57.407Z,0.90
2022-12-29T20:36:28.843Z,1.10
2022-12-29T20:38:59.927Z,1.10
2022-12-29T20:41:28.957Z,1.17
2022-12-29T20:43:59.371Z,1.10
2022-12-29T20:46:33.994Z,1.10
2022-12-29T20:49:08.558Z,0.87
2022-12-29T20:52:04.381Z,0.70
2022-12-29T20:54:26.268Z,0.90
2022-12-29T20:56:54.906Z,1.13
2022-12-29T20:59:28.724Z,1.20
2022-12-29T21:01:58.251Z,1.00
2022-12-29T21:04:27.179Z,1.10
2022-12-29T21:06:56.141Z,1.93
2022-12-29T21:09:24.768Z,1.23
2022-12-29T21:11:53.249Z,0.97
2022-12-29T21:14:21.859Z,1.20
2022-12-29T21:16:51.753Z,1.27
2022-12-29T21:19:20.357Z,1.03
2022-12-29T21:21:48.898Z,1.20
2022-12-29T21:24:19.830Z,1.20
2022-12-29T21:26:48.714Z,1.00
2022-12-29T21:29:17.398Z,1.10
2022-12-29T21:31:46.688Z,1.20
2022-12-29T21:34:16.616Z,1.20
2022-12-29T21:36:46.479Z,1.03
2022-12-29T21:39:16.478Z,0.83
2022-12-29T21:41:45.147Z,1.27
2022-12-29T21:44:31.416Z,1.10
2022-12-29T21:47:00.015Z,1.07
2022-12-29T21:49:30.289Z,1.40
2022-12-29T21:51:58.839Z,1.00
2022-12-29T21:54:46.564Z,1.20
2022-12-29T21:57:38.202Z,1.20
2022-12-29T22:00:28.039Z,1.10
2022-12-29T22:03:22.399Z,1.37
2022-12-29T22:06:10.840Z,1.90
2022-12-29T22:08:57.264Z,1.27
2022-12-29T22:11:43.721Z,0.80
2022-12-29T22:14:12.323Z,1.10
2022-12-29T22:16:40.830Z,0.93
2022-12-29T22:19:10.775Z,0.70
2022-12-29T22:21:42.981Z,1.30
2022-12-29T22:24:11.472Z,1.07
2022-12-29T22:26:40.038Z,1.07
2022-12-29T22:29:08.480Z,1.23
2022-12-29T22:31:37.107Z,1.00
2022-12-29T22:34:06.374Z,1.70
2022-12-29T22:36:35.122Z,1.03
2022-12-29T22:39:05.313Z,1.00
2022-12-29T22:41:33.848Z,0.90
2022-12-29T22:44:02.277Z,1.10
2022-12-29T22:46:30.782Z,1.17
2022-12-29T22:48:59.450Z,0.80
2022-12-29T22:51:28.107Z,1.23
2022-12-29T22:53:56.508Z,1.30
2022-12-29T22:56:26.606Z,1.15
2022-12-29T22:58:55.059Z,1.30
2022-12-29T23:01:23.822Z,1.00
2022-12-29T23:03:52.500Z,1.27
2022-12-29T23:06:21.115Z,1.20
2022-12-29T23:08:49.940Z,1.17
2022-12-29T23:11:18.442Z,1.03
2022-12-29T23:13:48.356Z,1.37
2022-12-29T23:16:17.958Z,1.00
2022-12-29T23:18:48.042Z,1.47
2022-12-29T23:21:17.095Z,1.13
2022-12-29T23:23:55.883Z,1.30
2022-12-29T23:26:27.159Z,0.80
2022-12-29T23:29:00.236Z,1.00
2022-12-29T23:31:29.969Z,1.33
2022-12-29T23:33:58.770Z,1.20
2022-12-29T23:36:27.765Z,1.10
2022-12-29T23:38:57.092Z,1.13
2022-12-29T23:41:25.777Z,1.57
2022-12-29T23:43:54.261Z,1.10
2022-12-29T23:46:29.364Z,1.00
2022-12-29T23:48:58.207Z,1.10
2022-12-29T23:51:26.816Z,0.97
2022-12-29T23:53:55.504Z,1.20
2022-12-29T23:56:25.007Z,1.60
2022-12-29T23:58:53.797Z,1.00
